Time;durP1;ratioP1;P1;durP2;ratioP2;P2;SDS_P1;SDS_P2;PMS_P1;PMS_P2;Temp;Humidity;BMP_temperature;BMP_pressure;BME280_temperature;BME280_humidity;BME280_pressure;Samples;Min_cycle;Max_cycle;Signal;HPM_P1;HPM_P2
2022/07/29 00:00:35;;;;;;;3.72;1.77;;;15.60;98.20;;;;;;5059721;28;20017;-46
2022/07/29 00:03:02;;;;;;;4.40;1.65;;;15.60;98.40;;;;;;5057531;28;20032;-48
2022/07/29 00:05:27;;;;;;;4.35;1.70;;;15.50;98.40;;;;;;5074430;28;20021;-45
2022/07/29 00:07:53;;;;;;;3.75;1.83;;;15.50;98.50;;;;;;5070478;28;20538;-45
2022/07/29 00:10:19;;;;;;;5.10;1.75;;;15.50;98.60;;;;;;5068639;28;20406;-49
2022/07/29 00:12:45;;;;;;;5.03;1.80;;;15.50;98.80;;;;;;5070356;28;20364;-43
2022/07/29 00:15:11;;;;;;;5.75;1.80;;;15.50;98.60;;;;;;5070042;28;20036;-44
2022/07/29 00:17:36;;;;;;;4.50;2.00;;;15.50;98.70;;;;;;5070832;28;20086;-45
2022/07/29 00:20:03;;;;;;;5.28;1.80;;;15.50;98.80;;;;;;5070096;28;20484;-52
2022/07/29 00:22:28;;;;;;;4.57;1.60;;;15.40;99.00;;;;;;5070643;28;20107;-43
2022/07/29 00:24:54;;;;;;;4.45;1.70;;;15.40;99.10;;;;;;5070116;28;20128;-46
2022/07/29 00:27:20;;;;;;;6.15;1.90;;;15.40;99.30;;;;;;5059816;28;20021;-51
2022/07/29 00:29:46;;;;;;;6.22;1.90;;;15.30;99.30;;;;;;5069787;28;20056;-54
2022/07/29 00:32:11;;;;;;;3.08;1.70;;;15.30;99.30;;;;;;5068783;28;20020;-46
2022/07/29 00:37:21;;;;;;;5.00;1.60;;;15.20;99.50;;;;;;5068831;28;20036;-45
2022/07/29 00:39:48;;;;;;;4.30;1.40;;;15.20;99.70;;;;;;5068630;28;20028;-45
2022/07/29 00:42:13;;;;;;;3.78;1.60;;;15.20;99.80;;;;;;5068602;28;20070;-46
2022/07/29 00:44:40;;;;;;;5.30;1.75;;;15.10;99.80;;;;;;5069260;28;20033;-44
2022/07/29 00:47:07;;;;;;;4.53;1.70;;;15.10;99.90;;;;;;5070585;28;20017;-45
2022/07/29 00:49:33;;;;;;;5.15;1.70;;;15.00;99.90;;;;;;5070493;28;20036;-49
2022/07/29 00:52:02;;;;;;;4.10;1.67;;;15.00;99.90;;;;;;5070355;28;20059;-46
2022/07/29 00:54:28;;;;;;;5.38;2.00;;;14.90;99.90;;;;;;5070594;28;20024;-44
2022/07/29 00:56:57;;;;;;;4.00;1.63;;;14.90;99.90;;;;;;5070668;28;20021;-48
2022/07/29 00:59:23;;;;;;;4.85;1.85;;;14.80;99.90;;;;;;5070677;28;20031;-43
2022/07/29 01:01:48;;;;;;;4.30;1.83;;;14.80;99.90;;;;;;5070590;28;20032;-45
2022/07/29 01:04:14;;;;;;;4.75;1.67;;;14.80;99.90;;;;;;5070459;28;20024;-45
2022/07/29 01:06:41;;;;;;;5.32;1.67;;;14.70;99.90;;;;;;5070283;28;20017;-44
2022/07/29 01:09:07;;;;;;;6.60;2.10;;;14.70;99.90;;;;;;5070224;28;20048;-46
2022/07/29 01:11:33;;;;;;;5.45;1.85;;;14.70;99.90;;;;;;5070419;28;20047;-49
2022/07/29 01:14:00;;;;;;;4.38;1.90;;;14.70;99.90;;;;;;5070335;28;20063;-47
2022/07/29 01:16:32;;;;;;;5.60;1.90;;;14.60;99.90;;;;;;5072112;28;20507;-51
2022/07/29 01:19:25;;;;;;;3.88;1.75;;;14.60;99.90;;;;;;5074129;28;20104;-50
2022/07/29 01:21:55;;;;;;;5.40;2.00;;;14.50;99.90;;;;;;5069813;28;20435;-56
2022/07/29 01:25:02;;;;;;;3.75;1.90;;;14.50;99.90;;;;;;5061895;28;20029;-54
2022/07/29 01:28:09;;;;;;;4.90;1.70;;;14.60;99.90;;;;;;5063149;28;20056;-48
2022/07/29 01:30:36;;;;;;;4.90;1.80;;;14.50;99.90;;;;;;5073786;28;20044;-46
2022/07/29 01:33:09;;;;;;;3.17;1.85;;;14.50;99.90;;;;;;5073978;28;20039;-55
2022/07/29 01:35:40;;;;;;;4.65;1.90;;;14.50;99.90;;;;;;5073505;28;20029;-46
2022/07/29 01:38:17;;;;;;;4.95;2.00;;;14.50;99.90;;;;;;5073637;28;20059;-52
2022/07/29 01:40:46;;;;;;;4.38;1.88;;;14.50;99.90;;;;;;5073905;28;20137;-51
2022/07/29 01:43:20;;;;;;;3.90;1.73;;;14.50;99.90;;;;;;5073786;28;20054;-52
2022/07/29 01:45:52;;;;;;;4.45;1.70;;;14.50;99.90;;;;;;5073694;28;20032;-50
2022/07/29 01:48:25;;;;;;;4.18;2.00;;;14.50;99.90;;;;;;5073679;28;20116;-51
2022/07/29 01:50:58;;;;;;;4.32;1.80;;;14.50;99.90;;;;;;5073016;28;20036;-44
2022/07/29 01:53:37;;;;;;;4.60;1.77;;;14.50;99.90;;;;;;5073614;28;20021;-52
2022/07/29 01:56:04;;;;;;;4.47;1.70;;;14.40;99.90;;;;;;5073056;28;20086;-46
2022/07/29 01:58:32;;;;;;;4.65;1.80;;;14.30;99.90;;;;;;5073311;28;20032;-50
2022/07/29 02:01:01;;;;;;;3.65;1.52;;;14.20;99.90;;;;;;5073001;28;20024;-50
2022/07/29 02:03:29;;;;;;;3.45;1.73;;;14.20;99.90;;;;;;5073293;28;20384;-43
2022/07/29 02:05:56;;;;;;;2.90;1.88;;;14.10;99.90;;;;;;5072909;28;20601;-49
2022/07/29 02:08:23;;;;;;;4.70;1.92;;;14.10;99.90;;;;;;5073194;28;20376;-47
2022/07/29 02:10:49;;;;;;;3.42;1.90;;;14.10;99.90;;;;;;5071603;28;20032;-44
2022/07/29 02:13:17;;;;;;;6.38;2.22;;;14.10;99.90;;;;;;5070278;28;20028;-55
2022/07/29 02:15:45;;;;;;;5.13;2.10;;;14.10;99.90;;;;;;5087967;28;20036;-47
2022/07/29 02:18:18;;;;;;;3.00;1.65;;;14.10;99.90;;;;;;5073368;28;20074;-55
2022/07/29 02:20:54;;;;;;;5.15;1.83;;;14.10;99.90;;;;;;5072870;28;20506;-48
2022/07/29 02:23:24;;;;;;;6.00;1.90;;;14.10;99.90;;;;;;5067954;28;20036;-54
2022/07/29 02:25:53;;;;;;;4.78;2.20;;;14.10;99.90;;;;;;5069875;28;20505;-55
2022/07/29 02:28:21;;;;;;;5.32;1.83;;;14.10;99.90;;;;;;5060984;28;20456;-50
2022/07/29 02:30:50;;;;;;;3.10;1.90;;;14.10;99.90;;;;;;5072737;28;20122;-56
2022/07/29 02:33:18;;;;;;;4.50;1.92;;;14.10;99.90;;;;;;5072753;28;20068;-54
2022/07/29 02:35:45;;;;;;;3.40;1.85;;;14.20;99.90;;;;;;5072748;28;20036;-47
2022/07/29 02:41:05;;;;;;;7.28;2.22;;;14.20;99.90;;;;;;5072597;28;20039;-49
2022/07/29 02:43:33;;;;;;;3.63;2.25;;;14.10;99.90;;;;;;5072444;28;20024;-51
2022/07/29 02:46:02;;;;;;;4.68;1.90;;;14.10;99.90;;;;;;5072375;28;20095;-43
2022/07/29 02:48:36;;;;;;;5.72;2.15;;;14.10;99.90;;;;;;5071202;28;20035;-46
2022/07/29 02:51:08;;;;;;;5.57;2.05;;;14.00;99.90;;;;;;5071919;28;20044;-43
2022/07/29 02:53:36;;;;;;;4.47;2.13;;;14.00;99.90;;;;;;5072042;28;20036;-43
2022/07/29 02:56:10;;;;;;;5.47;2.10;;;14.00;99.90;;;;;;5072318;28;20020;-42
2022/07/29 02:58:42;;;;;;;3.35;1.98;;;13.90;99.90;;;;;;5072335;28;20031;-46
2022/07/29 03:01:14;;;;;;;4.28;2.10;;;13.90;99.90;;;;;;5072119;28;20031;-50
2022/07/29 03:03:43;;;;;;;5.57;2.20;;;13.90;99.90;;;;;;5072112;28;20059;-43
2022/07/29 03:06:11;;;;;;;5.03;2.40;;;13.90;99.90;;;;;;5070816;28;20383;-48
2022/07/29 03:08:36;;;;;;;6.38;1.90;;;13.90;99.90;;;;;;5087704;28;20414;-48
2022/07/29 03:11:03;;;;;;;6.22;1.95;;;13.80;99.90;;;;;;5071690;28;20035;-47
2022/07/29 03:13:30;;;;;;;6.97;2.10;;;13.80;99.90;;;;;;5071792;28;20033;-45
2022/07/29 03:15:58;;;;;;;4.05;1.90;;;13.80;99.90;;;;;;5071832;28;20086;-45
2022/07/29 03:18:24;;;;;;;3.97;2.00;;;13.80;99.90;;;;;;5071978;28;20081;-49
2022/07/29 03:20:50;;;;;;;3.22;1.95;;;13.80;99.90;;;;;;5071733;28;20063;-42
2022/07/29 03:23:21;;;;;;;3.58;2.13;;;13.80;99.90;;;;;;5068542;28;20060;-47
2022/07/29 03:25:47;;;;;;;5.93;2.00;;;13.70;99.90;;;;;;5061767;28;20025;-48
2022/07/29 03:28:12;;;;;;;4.78;2.22;;;13.70;99.90;;;;;;5071615;28;20016;-44
2022/07/29 03:30:38;;;;;;;5.18;2.03;;;13.70;99.90;;;;;;5071377;28;20040;-43
2022/07/29 03:33:04;;;;;;;4.65;1.88;;;13.70;99.90;;;;;;5071617;28;20126;-45
2022/07/29 03:35:31;;;;;;;3.10;1.90;;;13.70;99.90;;;;;;5067885;28;20029;-45
2022/07/29 03:37:57;;;;;;;4.18;2.13;;;13.70;99.90;;;;;;5050976;28;20032;-45
2022/07/29 03:40:30;;;;;;;4.13;2.28;;;13.70;99.90;;;;;;5054265;28;20025;-47
2022/07/29 03:42:56;;;;;;;5.82;2.08;;;13.70;99.90;;;;;;5067790;28;20082;-42
2022/07/29 03:45:23;;;;;;;4.50;2.33;;;13.70;99.90;;;;;;5061838;28;20027;-42
2022/07/29 03:47:54;;;;;;;6.57;2.40;;;13.70;99.90;;;;;;5067076;28;20032;-45
2022/07/29 03:50:21;;;;;;;3.50;2.10;;;13.70;99.90;;;;;;5071367;28;20041;-44
2022/07/29 03:52:48;;;;;;;4.47;2.15;;;13.80;99.90;;;;;;5070787;28;20039;-43
2022/07/29 03:55:14;;;;;;;3.88;2.20;;;13.70;99.90;;;;;;5057890;28;20048;-45
2022/07/29 03:57:41;;;;;;;5.40;1.90;;;13.70;99.90;;;;;;5071294;28;20031;-43
2022/07/29 04:00:08;;;;;;;5.85;2.13;;;13.60;99.90;;;;;;5070918;28;20025;-46
2022/07/29 04:02:35;;;;;;;4.90;2.00;;;13.50;99.90;;;;;;5070976;28;20023;-50
2022/07/29 04:05:01;;;;;;;5.65;2.10;;;13.50;99.90;;;;;;5071207;28;20032;-48
2022/07/29 04:07:27;;;;;;;4.78;2.58;;;13.40;99.90;;;;;;5071003;28;20382;-49
2022/07/29 04:09:52;;;;;;;4.95;2.10;;;13.20;99.90;;;;;;5069844;28;20040;-43
2022/07/29 04:12:18;;;;;;;3.15;2.05;;;13.10;99.90;;;;;;5069642;28;20054;-43
2022/07/29 04:14:43;;;;;;;3.67;2.00;;;13.00;99.90;;;;;;5071042;28;20032;-44
2022/07/29 04:17:09;;;;;;;19.50;5.68;;;12.90;99.90;;;;;;5070909;28;20072;-43
2022/07/29 04:19:35;;;;;;;3.58;2.03;;;12.90;99.90;;;;;;5070836;28;20032;-46
2022/07/29 04:22:01;;;;;;;9.35;3.38;;;12.90;99.90;;;;;;5070644;28;20356;-43
2022/07/29 04:24:27;;;;;;;5.63;2.70;;;12.90;99.90;;;;;;5070515;28;20047;-50
2022/07/29 04:26:53;;;;;;;5.15;2.25;;;12.90;99.90;;;;;;5070489;28;20422;-50
2022/07/29 04:29:19;;;;;;;3.85;2.45;;;13.00;99.90;;;;;;5070419;28;20102;-47
2022/07/29 04:31:45;;;;;;;5.72;2.40;;;13.20;99.90;;;;;;5070581;28;20032;-45
2022/07/29 04:34:11;;;;;;;6.43;3.10;;;13.30;99.90;;;;;;5070560;28;20020;-49
2022/07/29 04:36:37;;;;;;;8.15;2.55;;;13.50;99.90;;;;;;5070654;28;20021;-46
2022/07/29 04:39:03;;;;;;;5.32;2.63;;;13.70;99.90;;;;;;5070582;28;20442;-47
2022/07/29 04:41:29;;;;;;;8.05;3.13;;;13.90;99.90;;;;;;5069112;28;20099;-45
2022/07/29 04:43:55;;;;;;;4.32;2.50;;;13.90;99.90;;;;;;5070554;28;20452;-42
2022/07/29 04:46:21;;;;;;;6.95;2.90;;;14.10;99.90;;;;;;5056614;28;20021;-46
2022/07/29 04:48:47;;;;;;;5.18;2.85;;;14.20;99.90;;;;;;5070392;28;20078;-50
2022/07/29 04:51:14;;;;;;;7.50;2.65;;;14.30;99.90;;;;;;5071953;28;20020;-45
2022/07/29 04:53:40;;;;;;;5.00;2.72;;;14.40;99.90;;;;;;5074688;28;20012;-50
2022/07/29 04:56:06;;;;;;;6.68;2.40;;;14.60;99.90;;;;;;5074547;28;20059;-49
2022/07/29 04:58:35;;;;;;;8.88;3.03;;;14.70;99.90;;;;;;5074761;28;20048;-43
2022/07/29 05:01:00;;;;;;;7.37;2.60;;;14.90;99.90;;;;;;5074541;28;20028;-48
2022/07/29 05:03:26;;;;;;;6.85;2.35;;;14.90;99.90;;;;;;5074399;28;20349;-45
2022/07/29 05:05:52;;;;;;;6.85;3.10;;;15.00;99.90;;;;;;5074554;28;20024;-55
2022/07/29 05:08:17;;;;;;;6.85;3.00;;;15.00;99.90;;;;;;5074414;28;20021;-49
2022/07/29 05:10:43;;;;;;;6.35;2.63;;;15.20;99.90;;;;;;5073787;28;20029;-48
2022/07/29 05:13:09;;;;;;;3.67;2.40;;;15.30;99.90;;;;;;5073811;28;20470;-48
2022/07/29 05:15:35;;;;;;;8.38;3.00;;;15.50;99.90;;;;;;5074501;28;20024;-45
2022/07/29 05:18:01;;;;;;;7.45;2.55;;;15.60;99.90;;;;;;5074160;28;20104;-53
2022/07/29 05:20:28;;;;;;;5.05;2.45;;;15.80;99.90;;;;;;5074326;28;20078;-46
2022/07/29 05:22:58;;;;;;;6.30;2.72;;;15.90;99.90;;;;;;5074115;28;20028;-50
2022/07/29 05:25:25;;;;;;;5.10;2.47;;;16.00;99.90;;;;;;5073811;28;20017;-54
2022/07/29 05:27:51;;;;;;;4.93;2.60;;;16.00;99.90;;;;;;5074268;28;20033;-55
2022/07/29 05:30:17;;;;;;;6.10;2.60;;;16.20;99.90;;;;;;5073803;28;20471;-57
2022/07/29 05:32:42;;;;;;;11.27;3.85;;;16.20;99.90;;;;;;5074613;28;20028;-49
2022/07/29 05:35:09;;;;;;;4.45;2.42;;;16.20;99.90;;;;;;5074121;28;20029;-49
2022/07/29 05:37:34;;;;;;;4.53;2.20;;;16.30;99.90;;;;;;5074188;28;20031;-44
2022/07/29 05:40:01;;;;;;;3.80;1.90;;;16.10;99.90;;;;;;5073769;28;20425;-49
2022/07/29 05:42:27;;;;;;;4.85;2.25;;;15.90;99.90;;;;;;5074029;28;20028;-48
2022/07/29 05:44:53;;;;;;;4.20;2.00;;;15.70;99.90;;;;;;5066018;28;20028;-54
2022/07/29 05:47:19;;;;;;;4.90;2.53;;;15.60;99.90;;;;;;5067493;28;20063;-47
2022/07/29 05:49:45;;;;;;;8.57;2.53;;;15.50;99.90;;;;;;5073498;28;20433;-48
2022/07/29 05:52:12;;;;;;;5.75;2.90;;;15.40;99.90;;;;;;5073619;28;20055;-52
2022/07/29 05:54:38;;;;;;;5.13;2.60;;;15.40;99.90;;;;;;5073350;28;20375;-50
2022/07/29 05:57:05;;;;;;;5.85;2.60;;;15.40;99.90;;;;;;5073841;28;20490;-46
2022/07/29 05:59:31;;;;;;;5.82;2.88;;;15.50;99.90;;;;;;5073483;28;20032;-46
2022/07/29 06:01:57;;;;;;;6.05;2.65;;;15.70;99.90;;;;;;5073160;28;20098;-49
2022/07/29 06:04:23;;;;;;;6.18;2.20;;;15.90;99.90;;;;;;5073266;28;20471;-44
2022/07/29 06:06:48;;;;;;;6.00;2.28;;;16.10;99.90;;;;;;5073458;28;20375;-46
2022/07/29 06:09:14;;;;;;;4.65;2.00;;;16.30;99.90;;;;;;5073073;28;20082;-47
2022/07/29 06:11:41;;;;;;;7.78;2.25;;;16.50;99.90;;;;;;5072672;28;20039;-46
2022/07/29 06:14:06;;;;;;;8.55;2.47;;;16.80;99.90;;;;;;5073152;28;20050;-45
2022/07/29 06:16:32;;;;;;;6.28;2.72;;;16.90;99.90;;;;;;5071684;28;20036;-46
2022/07/29 06:18:58;;;;;;;6.15;2.30;;;16.90;99.90;;;;;;5072902;28;20099;-47
2022/07/29 06:21:23;;;;;;;4.78;2.50;;;17.00;99.90;;;;;;5072803;28;20020;-44
2022/07/29 06:23:49;;;;;;;3.13;2.08;;;17.10;99.90;;;;;;5073011;28;20066;-47
2022/07/29 06:26:15;;;;;;;6.43;2.05;;;17.10;99.90;;;;;;5072889;28;20028;-49
2022/07/29 06:28:40;;;;;;;3.95;1.73;;;17.40;99.90;;;;;;5072698;28;20074;-55
2022/07/29 06:31:06;;;;;;;6.85;2.22;;;17.70;99.90;;;;;;5072534;28;20048;-52
2022/07/29 06:33:32;;;;;;;5.13;1.92;;;17.90;99.90;;;;;;5072676;28;20078;-46
2022/07/29 06:35:57;;;;;;;5.03;2.15;;;18.10;99.90;;;;;;5071814;28;20043;-49
2022/07/29 06:38:23;;;;;;;4.45;2.00;;;18.30;99.90;;;;;;5071925;28;20016;-46
2022/07/29 06:41:02;;;;;;;4.45;1.90;;;18.50;99.90;;;;;;5058694;28;20020;-49
2022/07/29 06:43:40;;;;;;;4.93;1.70;;;18.70;99.90;;;;;;5065211;28;20040;-45
2022/07/29 06:46:09;;;;;;;6.03;1.70;;;19.10;99.70;;;;;;5071566;28;20439;-45
2022/07/29 06:48:39;;;;;;;8.05;2.03;;;19.40;99.70;;;;;;5070823;28;20167;-53
2022/07/29 06:51:06;;;;;;;7.00;1.83;;;19.70;97.90;;;;;;5071234;28;20070;-52
2022/07/29 06:53:32;;;;;;;6.65;1.70;;;20.20;98.40;;;;;;5069947;28;20063;-48
2022/07/29 06:55:59;;;;;;;4.78;1.25;;;20.70;97.70;;;;;;5069912;28;20021;-52
2022/07/29 06:58:26;;;;;;;6.25;1.83;;;21.20;96.20;;;;;;5071228;28;20070;-53
2022/07/29 07:00:52;;;;;;;7.47;1.60;;;21.60;94.00;;;;;;5070679;28;20024;-45
2022/07/29 07:03:18;;;;;;;5.32;1.90;;;22.10;93.80;;;;;;5071416;28;20039;-47
2022/07/29 07:05:44;;;;;;;3.20;1.65;;;22.30;93.50;;;;;;5069223;28;20416;-54
2022/07/29 07:08:11;;;;;;;3.22;1.30;;;22.50;93.20;;;;;;5071393;28;20032;-42
2022/07/29 07:10:37;;;;;;;5.13;1.75;;;22.50;92.40;;;;;;5071191;28;20044;-49
2022/07/29 07:13:04;;;;;;;5.00;1.73;;;22.20;92.10;;;;;;5068575;28;20043;-46
2022/07/29 07:15:30;;;;;;;6.40;2.10;;;21.90;92.70;;;;;;5069514;28;20360;-51
2022/07/29 07:17:57;;;;;;;5.68;1.60;;;21.90;93.30;;;;;;5071600;28;20036;-47
2022/07/29 07:20:24;;;;;;;3.25;1.70;;;21.80;92.50;;;;;;5071637;28;20029;-47
2022/07/29 07:22:49;;;;;;;4.15;1.73;;;22.00;92.50;;;;;;5071744;28;20494;-44
2022/07/29 07:25:17;;;;;;;5.00;1.40;;;22.10;92.10;;;;;;5071634;28;20029;-45
2022/07/29 07:27:46;;;;;;;7.28;1.85;;;22.20;92.10;;;;;;5071002;28;20190;-49
2022/07/29 07:30:12;;;;;;;7.10;1.63;;;22.20;91.90;;;;;;5069167;28;20044;-46
2022/07/29 07:32:38;;;;;;;6.07;1.67;;;22.30;92.10;;;;;;5071463;28;20027;-48
2022/07/29 07:35:05;;;;;;;7.25;1.70;;;22.30;91.70;;;;;;5071140;28;20025;-46
2022/07/29 07:37:31;;;;;;;7.68;1.75;;;22.50;91.90;;;;;;5071148;28;20029;-46
2022/07/29 07:39:57;;;;;;;4.72;1.70;;;22.80;91.50;;;;;;5070474;28;20106;-48
2022/07/29 07:42:23;;;;;;;4.28;1.70;;;23.30;91.00;;;;;;5070169;28;20038;-53
2022/07/29 07:44:49;;;;;;;7.43;2.00;;;23.70;90.30;;;;;;5063881;28;20480;-43
2022/07/29 07:47:19;;;;;;;3.90;1.60;;;23.50;88.80;;;;;;5064559;28;20028;-51
2022/07/29 07:49:48;;;;;;;3.42;1.60;;;23.60;90.20;;;;;;5071397;28;20040;-51
2022/07/29 07:52:15;;;;;;;5.25;1.63;;;23.90;88.70;;;;;;5071475;28;20024;-46
2022/07/29 07:54:42;;;;;;;6.07;1.70;;;24.20;89.40;;;;;;5070336;28;20039;-48
2022/07/29 07:57:08;;;;;;;5.32;1.90;;;24.40;87.00;;;;;;5069472;28;20104;-53
2022/07/29 07:59:34;;;;;;;8.73;2.25;;;24.60;85.50;;;;;;5069406;28;20154;-45
2022/07/29 08:02:00;;;;;;;5.53;1.90;;;24.50;84.80;;;;;;5068374;28;20099;-46
2022/07/29 08:04:26;;;;;;;8.20;1.90;;;24.40;85.40;;;;;;5070738;28;20035;-49
2022/07/29 08:06:54;;;;;;;6.85;1.80;;;24.50;83.00;;;;;;5063076;28;20060;-45
2022/07/29 08:09:20;;;;;;;2.53;1.27;;;24.60;83.80;;;;;;5061873;28;20021;-48
2022/07/29 08:11:46;;;;;;;6.53;1.77;;;24.80;84.40;;;;;;5070075;28;20392;-52
2022/07/29 08:14:13;;;;;;;4.25;1.98;;;25.40;82.20;;;;;;5070914;28;20024;-44
2022/07/29 08:16:40;;;;;;;5.05;1.48;;;26.00;80.80;;;;;;5070239;28;20099;-48
2022/07/29 08:19:06;;;;;;;5.28;1.73;;;26.80;79.20;;;;;;5070800;28;20048;-57
2022/07/29 08:21:32;;;;;;;4.57;1.55;;;27.00;79.00;;;;;;5070606;28;20048;-45
2022/07/29 08:26:43;;;;;;;5.53;1.58;;;27.20;77.30;;;;;;5069764;28;20035;-53
2022/07/29 08:29:09;;;;;;;6.60;1.60;;;28.10;77.30;;;;;;5069653;28;20135;-46
2022/07/29 08:31:35;;;;;;;7.03;1.85;;;28.80;75.70;;;;;;5070864;28;20036;-46
2022/07/29 08:34:03;;;;;;;7.07;2.13;;;29.10;70.90;;;;;;5070778;28;20085;-49
2022/07/29 08:36:29;;;;;;;5.70;1.70;;;29.20;71.40;;;;;;5070599;28;20024;-49
2022/07/29 08:38:55;;;;;;;7.53;1.83;;;29.40;71.20;;;;;;5070384;28;20029;-45
2022/07/29 08:41:21;;;;;;;8.85;1.75;;;29.40;69.00;;;;;;5070482;28;20066;-49
2022/07/29 08:43:48;;;;;;;4.03;1.92;;;29.40;69.90;;;;;;5069652;28;20026;-51
2022/07/29 08:46:14;;;;;;;5.75;1.83;;;29.90;66.00;;;;;;5063335;28;20031;-46
2022/07/29 08:48:41;;;;;;;4.75;1.60;;;29.80;66.00;;;;;;5070470;28;20029;-48
2022/07/29 08:51:08;;;;;;;4.55;1.52;;;30.50;64.50;;;;;;5069415;28;20025;-48
2022/07/29 08:53:34;;;;;;;5.38;1.80;;;31.00;60.80;;;;;;5070546;28;20032;-44
2022/07/29 08:56:01;;;;;;;4.18;1.40;;;31.60;57.50;;;;;;5070483;28;20024;-43
2022/07/29 08:58:32;;;;;;;3.00;1.55;;;32.00;58.90;;;;;;5070728;28;20028;-47
2022/07/29 09:01:01;;;;;;;4.13;1.30;;;32.60;56.50;;;;;;5068818;28;20071;-44
2022/07/29 09:03:31;;;;;;;3.60;1.20;;;33.30;53.00;;;;;;5068852;28;20097;-44
2022/07/29 09:06:01;;;;;;;3.30;1.20;;;33.70;49.00;;;;;;5069493;28;20031;-44
2022/07/29 09:08:28;;;;;;;4.10;1.50;;;33.70;48.40;;;;;;5069471;28;20028;-47
2022/07/29 09:10:55;;;;;;;4.53;1.30;;;33.80;47.70;;;;;;5069693;28;20021;-51
2022/07/29 09:13:22;;;;;;;3.70;1.03;;;33.60;46.50;;;;;;5068494;28;20107;-51
2022/07/29 09:15:47;;;;;;;5.45;1.27;;;33.70;44.70;;;;;;5069580;28;20041;-58
2022/07/29 09:18:40;;;;;;;4.57;1.52;;;33.70;43.40;;;;;;5069746;28;20394;-49
2022/07/29 09:24:13;;;;;;;4.00;1.20;;;33.70;40.80;;;;;;5070076;28;20028;-45
2022/07/29 09:26:40;;;;;;;5.25;1.10;;;33.10;41.60;;;;;;5069630;28;20077;-45
2022/07/29 09:29:24;;;;;;;3.47;1.08;;;33.20;42.90;;;;;;5065085;28;20028;-45
2022/07/29 09:31:52;;;;;;;4.47;1.15;;;33.20;40.00;;;;;;5068456;28;20056;-53
2022/07/29 09:34:22;;;;;;;4.50;1.50;;;33.30;39.60;;;;;;5063612;28;20021;-53
2022/07/29 09:36:49;;;;;;;2.42;1.02;;;33.10;38.30;;;;;;5068357;28;20025;-47
2022/07/29 09:39:26;;;;;;;3.67;1.10;;;33.10;39.80;;;;;;5073265;28;20062;-43
2022/07/29 09:41:55;;;;;;;4.35;1.20;;;32.90;39.80;;;;;;5073632;28;20490;-49
2022/07/29 09:44:22;;;;;;;3.42;1.20;;;32.60;39.40;;;;;;5071782;28;20175;-48
2022/07/29 09:47:05;;;;;;;3.92;1.00;;;33.00;39.60;;;;;;5067431;28;20033;-43
2022/07/29 09:49:36;;;;;;;3.50;1.27;;;33.30;39.20;;;;;;5073105;28;20123;-43
2022/07/29 09:52:11;;;;;;;3.63;1.15;;;33.10;37.90;;;;;;5073619;28;20032;-50
2022/07/29 09:54:37;;;;;;;3.42;1.10;;;32.20;41.10;;;;;;5064497;28;20036;-56
2022/07/29 09:57:12;;;;;;;2.38;1.08;;;32.70;40.50;;;;;;5072857;28;20020;-55
2022/07/29 09:59:38;;;;;;;3.58;1.30;;;33.00;41.40;;;;;;5069346;28;20020;-47
2022/07/29 10:02:14;;;;;;;1.73;0.98;;;32.50;38.90;;;;;;5079860;28;20032;-43
2022/07/29 10:04:43;;;;;;;4.97;1.05;;;32.90;41.30;;;;;;5067336;28;20036;-51
2022/07/29 10:07:09;;;;;;;4.25;1.38;;;33.10;40.20;;;;;;5067205;28;20483;-50
2022/07/29 10:09:35;;;;;;;3.33;0.90;;;33.30;38.00;;;;;;5066858;28;20036;-49
2022/07/29 10:12:15;;;;;;;3.28;1.10;;;32.70;39.80;;;;;;5064431;28;20027;-43
2022/07/29 10:14:42;;;;;;;2.35;1.00;;;32.50;39.20;;;;;;5065799;28;20028;-46
2022/07/29 10:17:10;;;;;;;3.67;1.10;;;32.30;39.90;;;;;;5069223;28;20021;-44
2022/07/29 10:19:37;;;;;;;3.38;1.00;;;32.60;39.50;;;;;;5068008;28;20546;-46
2022/07/29 10:22:06;;;;;;;2.47;1.10;;;32.30;39.20;;;;;;5065626;28;20106;-53
2022/07/29 10:24:33;;;;;;;2.78;1.23;;;32.60;39.70;;;;;;5070029;28;20028;-51
2022/07/29 10:27:00;;;;;;;2.80;1.20;;;32.40;39.90;;;;;;5067305;28;20024;-49
2022/07/29 10:29:27;;;;;;;6.63;1.27;;;32.40;42.40;;;;;;5072133;28;20237;-46
2022/07/29 10:32:17;;;;;;;2.70;1.10;;;32.70;39.80;;;;;;5071397;28;20072;-53
2022/07/29 10:35:09;;;;;;;4.55;1.20;;;32.80;39.80;;;;;;5071982;28;20031;-50
2022/07/29 10:38:12;;;;;;;2.42;1.00;;;32.90;39.20;;;;;;5073809;28;20025;-47
2022/07/29 10:43:35;;;;;;;3.45;1.38;;;34.20;38.60;;;;;;5065861;28;20215;-46
2022/07/29 10:46:02;;;;;;;4.38;1.23;;;34.00;38.70;;;;;;5084437;28;20120;-45
2022/07/29 10:48:29;;;;;;;2.72;1.10;;;33.80;39.00;;;;;;5065309;28;20440;-50
2022/07/29 10:51:04;;;;;;;3.63;1.40;;;33.70;38.70;;;;;;5059360;28;20108;-52
2022/07/29 10:54:04;;;;;;;3.08;1.17;;;33.60;42.40;;;;;;5057766;28;20036;-44
2022/07/29 10:56:35;;;;;;;3.53;1.20;;;33.40;41.60;;;;;;5061292;28;20054;-45
2022/07/29 10:59:23;;;;;;;5.63;1.83;;;33.00;40.70;;;;;;5069212;28;20197;-48
2022/07/29 11:01:53;;;;;;;5.65;1.40;;;32.80;41.40;;;;;;5068648;28;20032;-50
2022/07/29 11:04:43;;;;;;;3.42;1.50;;;32.20;40.90;;;;;;5071816;28;20031;-44
2022/07/29 11:07:09;;;;;;;4.45;1.40;;;32.10;42.90;;;;;;5062357;28;20028;-50
2022/07/29 11:09:35;;;;;;;3.30;1.00;;;32.20;43.60;;;;;;5067201;28;20020;-45
2022/07/29 11:12:01;;;;;;;5.25;1.45;;;32.40;42.10;;;;;;5067576;28;20337;-46
2022/07/29 11:15:01;;;;;;;5.78;1.35;;;32.70;42.20;;;;;;5064837;28;20021;-50
2022/07/29 11:17:27;;;;;;;3.75;1.40;;;32.80;41.20;;;;;;5047064;28;20035;-51
2022/07/29 11:20:31;;;;;;;4.22;1.35;;;33.30;40.50;;;;;;5069773;28;20025;-46
2022/07/29 11:22:57;;;;;;;4.05;1.20;;;33.30;40.70;;;;;;5071362;28;20063;-48
2022/07/29 11:25:24;;;;;;;4.03;1.60;;;33.30;40.70;;;;;;5071519;28;20069;-46
2022/07/29 11:27:51;;;;;;;3.72;1.35;;;32.90;40.40;;;;;;5066975;28;20033;-51
2022/07/29 11:30:16;;;;;;;4.30;1.63;;;32.90;39.20;;;;;;5061865;28;20049;-46
2022/07/29 11:32:44;;;;;;;4.55;1.42;;;32.90;39.90;;;;;;5070687;28;20027;-47
2022/07/29 11:35:15;;;;;;;2.78;1.30;;;33.10;42.00;;;;;;5070499;28;20016;-52
2022/07/29 11:37:41;;;;;;;2.72;1.20;;;33.30;40.20;;;;;;5070653;28;20032;-49
2022/07/29 11:40:07;;;;;;;3.42;1.15;;;33.40;39.20;;;;;;5068642;28;20051;-48
2022/07/29 11:42:35;;;;;;;2.65;1.08;;;33.40;40.20;;;;;;5069399;28;20074;-51
2022/07/29 11:45:27;;;;;;;2.30;1.20;;;33.10;40.40;;;;;;5068618;28;20016;-45
2022/07/29 11:47:57;;;;;;;2.90;1.08;;;33.50;38.90;;;;;;5070010;28;20086;-46
2022/07/29 11:50:28;;;;;;;3.05;1.25;;;33.20;38.80;;;;;;5068098;28;20020;-49
2022/07/29 11:52:54;;;;;;;4.60;1.35;;;33.20;38.40;;;;;;5065599;28;20400;-48
2022/07/29 11:55:22;;;;;;;3.28;1.30;;;32.90;39.10;;;;;;5069565;28;20383;-51
2022/07/29 11:57:56;;;;;;;5.72;1.35;;;32.60;39.10;;;;;;5069769;28;20036;-46
2022/07/29 12:00:28;;;;;;;4.00;1.33;;;32.60;40.10;;;;;;5070700;28;20498;-45
2022/07/29 12:02:55;;;;;;;3.15;1.42;;;32.60;39.60;;;;;;5069537;28;20027;-47
2022/07/29 12:05:21;;;;;;;3.67;1.00;;;32.40;40.30;;;;;;5070998;28;20111;-45
2022/07/29 12:07:48;;;;;;;3.47;1.30;;;32.60;38.60;;;;;;5069509;28;20023;-49
2022/07/29 12:10:14;;;;;;;4.60;1.40;;;32.30;37.40;;;;;;5069190;28;20016;-45
2022/07/29 12:12:40;;;;;;;3.90;1.23;;;31.90;39.60;;;;;;5069027;28;20100;-49
2022/07/29 12:15:20;;;;;;;2.50;1.20;;;32.20;40.10;;;;;;5069236;28;20115;-45
2022/07/29 12:17:47;;;;;;;4.38;1.23;;;31.70;37.90;;;;;;5069566;28;20055;-49
2022/07/29 12:20:17;;;;;;;3.30;1.20;;;31.70;39.30;;;;;;5069630;28;20028;-46
2022/07/29 12:22:44;;;;;;;3.28;1.35;;;31.90;42.10;;;;;;5070495;28;20020;-50
2022/07/29 12:25:14;;;;;;;3.38;1.15;;;32.10;40.10;;;;;;5070952;28;20475;-45
2022/07/29 12:27:40;;;;;;;4.85;1.20;;;32.20;39.50;;;;;;5070825;28;20520;-45
2022/07/29 12:30:09;;;;;;;5.22;1.13;;;31.70;38.30;;;;;;5070772;28;20043;-47
2022/07/29 12:32:45;;;;;;;2.88;1.25;;;31.60;39.40;;;;;;5068527;28;20025;-50
2022/07/29 12:35:19;;;;;;;2.95;1.20;;;31.30;40.40;;;;;;5070722;28;20025;-50
2022/07/29 12:37:47;;;;;;;5.10;1.25;;;31.70;38.50;;;;;;5070823;28;20043;-46
2022/07/29 12:40:16;;;;;;;3.40;1.27;;;31.90;41.00;;;;;;5070694;28;20046;-51
2022/07/29 12:43:01;;;;;;;;;;;32.00;39.30;;;;;;5071267;28;20407;-49
2022/07/29 12:45:31;;;;;;;4.57;1.30;;;31.20;39.50;;;;;;5058179;28;19913;-47
2022/07/29 12:47:57;;;;;;;2.80;1.20;;;30.50;39.90;;;;;;5069465;28;20032;-54
2022/07/29 12:50:23;;;;;;;3.28;1.10;;;29.90;42.00;;;;;;5070822;28;20028;-52
2022/07/29 12:52:49;;;;;;;4.25;1.00;;;30.10;41.90;;;;;;5070569;28;20028;-48
2022/07/29 12:55:15;;;;;;;5.68;1.30;;;30.10;40.90;;;;;;5070682;28;20039;-51
2022/07/29 12:57:50;;;;;;;3.30;1.40;;;30.00;42.30;;;;;;5070362;28;20021;-51
2022/07/29 13:00:21;;;;;;;4.55;1.58;;;29.60;41.10;;;;;;5070518;28;20040;-48
2022/07/29 13:02:57;;;;;;;2.08;1.23;;;29.50;44.00;;;;;;5070214;28;20021;-49
2022/07/29 13:05:24;;;;;;;2.72;1.23;;;29.60;44.70;;;;;;5070464;28;20116;-49
2022/07/29 13:07:50;;;;;;;4.53;1.38;;;30.00;43.50;;;;;;5070037;28;20017;-48
2022/07/29 13:10:17;;;;;;;3.20;1.50;;;30.40;44.00;;;;;;5070483;28;20028;-48